createdAt,value
2024-01-19T00:00:19.205Z,2.19
2024-01-19T00:02:45.932Z,2.38
2024-01-19T00:05:12.732Z,2.35
2024-01-19T00:07:39.490Z,2.25
2024-01-19T00:10:08.523Z,2.51
2024-01-19T00:12:35.193Z,3.16
2024-01-19T00:15:02.444Z,3.14
2024-01-19T00:17:29.198Z,3.33
2024-01-19T00:19:55.983Z,3.34
2024-01-19T00:22:22.751Z,3.02
2024-01-19T00:24:49.457Z,2.92
2024-01-19T00:27:17.572Z,3.34
2024-01-19T00:29:44.292Z,3.28
2024-01-19T00:32:11.202Z,2.99
2024-01-19T00:34:37.981Z,2.99
2024-01-19T00:37:06.770Z,2.76
2024-01-19T00:39:33.583Z,2.88
2024-01-19T00:42:00.390Z,2.73
2024-01-19T00:44:28.472Z,2.72
2024-01-19T00:46:55.170Z,2.72
2024-01-19T00:49:21.892Z,2.71
2024-01-19T00:51:48.709Z,2.68
2024-01-19T00:54:15.484Z,2.68
2024-01-19T00:56:42.317Z,2.86
2024-01-19T00:59:09.009Z,2.69
2024-01-19T01:01:37.058Z,2.81
2024-01-19T01:04:04.326Z,2.58
2024-01-19T01:06:32.794Z,2.75
2024-01-19T01:09:00.030Z,2.50
2024-01-19T01:11:26.868Z,2.81
2024-01-19T01:13:53.645Z,2.65
2024-01-19T01:16:20.338Z,2.58
2024-01-19T01:18:48.487Z,2.60
2024-01-19T01:21:15.290Z,2.81
2024-01-19T01:23:42.101Z,2.68
2024-01-19T01:26:09.551Z,2.74
2024-01-19T01:28:36.313Z,2.47
2024-01-19T01:31:03.182Z,2.75
2024-01-19T01:33:30.161Z,2.75
2024-01-19T01:35:58.514Z,3.01
2024-01-19T01:38:25.421Z,3.31
2024-01-19T01:40:52.225Z,3.11
2024-01-19T01:43:22.135Z,3.38
2024-01-19T01:45:48.917Z,3.47
2024-01-19T01:48:15.817Z,3.53
2024-01-19T01:50:42.893Z,3.61
2024-01-19T01:53:10.999Z,3.60
2024-01-19T01:55:37.800Z,3.81
2024-01-19T01:58:04.535Z,3.57
2024-01-19T02:00:31.309Z,3.76
2024-01-19T02:02:58.121Z,3.73
2024-01-19T02:05:24.914Z,4.22
2024-01-19T02:07:51.932Z,4.05
2024-01-19T02:10:20.117Z,3.66
2024-01-19T02:12:46.861Z,3.77
2024-01-19T02:15:17.890Z,3.84
2024-01-19T02:17:44.668Z,3.57
2024-01-19T02:20:12.087Z,3.76
2024-01-19T02:22:38.844Z,3.49
2024-01-19T02:25:07.681Z,3.30
2024-01-19T02:27:34.400Z,3.28
2024-01-19T02:30:01.148Z,3.19
2024-01-19T02:32:27.876Z,3.41
2024-01-19T02:34:54.629Z,2.93
2024-01-19T02:37:21.341Z,3.23
2024-01-19T02:39:48.036Z,2.95
2024-01-19T02:42:16.097Z,2.98
2024-01-19T02:44:42.959Z,2.62
2024-01-19T02:47:09.680Z,2.74
2024-01-19T02:49:36.540Z,2.55
2024-01-19T02:52:03.475Z,2.37
2024-01-19T02:54:30.158Z,2.40
2024-01-19T02:56:56.876Z,2.52
2024-01-19T02:59:24.937Z,3.03
2024-01-19T03:01:51.662Z,3.29
2024-01-19T03:04:18.360Z,3.57
2024-01-19T03:06:45.161Z,3.70
2024-01-19T03:09:11.839Z,3.81
2024-01-19T03:11:38.603Z,3.71
2024-01-19T03:14:05.335Z,4.25
2024-01-19T03:16:33.385Z,4.09
2024-01-19T03:19:00.089Z,3.80
2024-01-19T03:21:26.856Z,4.04
2024-01-19T03:23:53.680Z,3.67
2024-01-19T03:26:20.385Z,3.83
2024-01-19T03:28:47.129Z,3.85
2024-01-19T03:31:13.788Z,3.74
2024-01-19T03:33:41.920Z,3.70
2024-01-19T03:36:09.063Z,3.66
2024-01-19T03:38:35.863Z,3.36
2024-01-19T03:41:02.560Z,3.32
2024-01-19T03:43:29.454Z,3.14
2024-01-19T03:45:56.168Z,3.07
2024-01-19T03:48:22.930Z,2.90
2024-01-19T03:50:51.056Z,3.11
2024-01-19T03:53:17.986Z,2.78
2024-01-19T03:55:44.733Z,2.95
2024-01-19T03:58:11.434Z,2.86
2024-01-19T04:00:38.157Z,2.53
2024-01-19T04:03:05.257Z,2.56
2024-01-19T04:05:32.167Z,2.45
2024-01-19T04:08:00.221Z,2.73
2024-01-19T04:10:27.744Z,2.63
2024-01-19T04:12:54.448Z,2.63
2024-01-19T04:15:21.319Z,2.75
2024-01-19T04:17:48.237Z,2.72
2024-01-19T04:20:15.027Z,2.88
2024-01-19T04:22:41.762Z,2.89
2024-01-19T04:25:10.090Z,2.73
2024-01-19T04:27:36.792Z,3.25
2024-01-19T04:30:03.995Z,3.36
2024-01-19T04:32:30.836Z,3.44
2024-01-19T04:34:57.568Z,3.59
2024-01-19T04:37:24.263Z,3.59
2024-01-19T04:39:50.937Z,3.44
2024-01-19T04:42:19.033Z,3.41
2024-01-19T04:44:45.792Z,3.65
2024-01-19T04:47:12.614Z,3.53
2024-01-19T04:49:39.343Z,3.29
2024-01-19T04:52:06.282Z,3.45
2024-01-19T04:54:32.968Z,3.38
2024-01-19T04:56:59.692Z,3.62
2024-01-19T04:59:27.747Z,3.60
2024-01-19T05:01:54.604Z,3.45
2024-01-19T05:04:21.367Z,3.50
2024-01-19T05:06:48.226Z,3.65
2024-01-19T05:09:15.041Z,3.38
2024-01-19T05:11:41.811Z,3.55
2024-01-19T05:14:08.481Z,3.60
2024-01-19T05:16:36.536Z,3.48
2024-01-19T05:19:03.314Z,3.79
2024-01-19T05:21:30.100Z,3.80
2024-01-19T05:23:56.896Z,3.66
2024-01-19T05:26:26.016Z,3.82
2024-01-19T05:28:52.746Z,3.66
2024-01-19T05:31:19.445Z,3.75
2024-01-19T05:33:47.747Z,3.67
2024-01-19T05:36:14.641Z,3.98
2024-01-19T05:38:41.347Z,3.88
2024-01-19T05:41:08.077Z,3.92
2024-01-19T05:43:34.857Z,3.87
2024-01-19T05:46:01.675Z,3.95
2024-01-19T05:48:28.496Z,4.25
2024-01-19T05:50:57.166Z,4.59
2024-01-19T05:53:24.071Z,4.40
2024-01-19T05:55:50.803Z,4.56
2024-01-19T05:58:17.542Z,4.39
2024-01-19T06:00:50.468Z,4.50
2024-01-19T06:03:17.384Z,4.26
2024-01-19T06:05:44.357Z,4.42
2024-01-19T06:08:11.185Z,4.49
2024-01-19T06:10:37.844Z,4.40
2024-01-19T06:13:04.547Z,4.22
2024-01-19T06:15:31.238Z,4.45
2024-01-19T06:17:59.391Z,4.82
2024-01-19T06:20:26.666Z,4.42
2024-01-19T06:22:53.353Z,4.55
2024-01-19T06:25:20.131Z,4.60
2024-01-19T06:27:46.856Z,4.74
2024-01-19T06:30:13.931Z,4.84
2024-01-19T06:32:40.831Z,5.06
2024-01-19T06:35:09.600Z,5.02
2024-01-19T06:37:38.313Z,5.18
2024-01-19T06:40:07.072Z,4.87
2024-01-19T06:42:33.785Z,4.98
2024-01-19T06:45:00.574Z,4.99
2024-01-19T06:47:27.417Z,5.30
2024-01-19T06:49:54.224Z,5.03
2024-01-19T06:52:22.280Z,5.27
2024-01-19T06:54:48.981Z,5.07
2024-01-19T06:57:15.768Z,5.54
2024-01-19T06:59:44.877Z,5.46
2024-01-19T07:02:11.968Z,5.56
2024-01-19T07:04:38.752Z,5.34
2024-01-19T07:07:05.524Z,5.52
2024-01-19T07:09:33.675Z,6.19
2024-01-19T07:12:00.597Z,5.99
2024-01-19T07:14:27.509Z,6.42
2024-01-19T07:16:54.258Z,6.09
2024-01-19T07:19:21.030Z,6.30
2024-01-19T07:21:47.778Z,6.06
2024-01-19T07:24:14.633Z,6.14
2024-01-19T07:26:42.885Z,6.52
2024-01-19T07:29:09.642Z,6.93
2024-01-19T07:31:36.541Z,6.78
2024-01-19T07:34:03.347Z,6.48
2024-01-19T07:36:30.447Z,6.39
2024-01-19T07:38:57.298Z,6.45
2024-01-19T07:41:24.119Z,6.57
2024-01-19T07:43:52.255Z,6.50
2024-01-19T07:46:18.919Z,6.78
2024-01-19T07:48:45.782Z,7.04
2024-01-19T07:51:12.761Z,6.48
2024-01-19T07:53:39.482Z,7.00
2024-01-19T07:56:07.115Z,6.90
2024-01-19T07:58:33.915Z,6.54
2024-01-19T08:01:01.951Z,6.87
2024-01-19T08:03:28.695Z,6.23
2024-01-19T08:05:55.445Z,6.21
2024-01-19T08:08:22.320Z,6.26
2024-01-19T08:10:49.131Z,6.19
2024-01-19T08:13:15.834Z,6.47
2024-01-19T08:15:42.634Z,6.39
2024-01-19T08:18:10.822Z,6.48
2024-01-19T08:20:37.680Z,6.25
2024-01-19T08:23:04.494Z,6.00
2024-01-19T08:25:31.219Z,5.81
2024-01-19T08:27:57.947Z,5.41
2024-01-19T08:30:24.598Z,5.68
2024-01-19T08:32:51.695Z,4.70
2024-01-19T08:35:19.856Z,4.34
2024-01-19T08:37:46.584Z,5.03
2024-01-19T08:40:13.389Z,5.34
2024-01-19T08:42:40.157Z,4.76
2024-01-19T08:45:08.066Z,4.41
2024-01-19T08:47:35.053Z,5.06
2024-01-19T08:50:01.845Z,4.98
2024-01-19T08:52:30.146Z,4.95
2024-01-19T08:54:56.810Z,5.25
2024-01-19T08:57:23.668Z,5.28
2024-01-19T08:59:50.491Z,5.44
2024-01-19T09:02:17.174Z,6.11
2024-01-19T09:04:43.932Z,6.26
2024-01-19T09:07:10.892Z,6.31
2024-01-19T09:09:39.062Z,6.47
2024-01-19T09:12:06.761Z,6.36
2024-01-19T09:14:33.675Z,6.42
2024-01-19T09:17:00.382Z,6.49
2024-01-19T09:19:27.117Z,6.61
2024-01-19T09:21:53.879Z,7.15
2024-01-19T09:24:20.658Z,6.94
2024-01-19T09:26:48.733Z,6.81
2024-01-19T09:29:15.442Z,6.93
2024-01-19T09:31:42.660Z,7.00
2024-01-19T09:34:09.435Z,7.34
2024-01-19T09:36:36.174Z,8.00
2024-01-19T09:39:02.898Z,8.01
2024-01-19T09:41:32.391Z,7.33
2024-01-19T09:44:00.621Z,7.30
2024-01-19T09:46:27.946Z,7.05
2024-01-19T09:48:59.450Z,7.08
2024-01-19T09:51:31.782Z,7.51
2024-01-19T09:53:58.631Z,7.12
2024-01-19T09:56:25.355Z,6.63
2024-01-19T09:58:52.059Z,6.87
2024-01-19T10:01:20.148Z,6.82
2024-01-19T10:03:46.883Z,6.95
2024-01-19T10:06:13.808Z,6.57
2024-01-19T10:08:40.640Z,6.60
2024-01-19T10:11:07.391Z,6.87
2024-01-19T10:13:34.091Z,6.62
2024-01-19T10:16:00.836Z,6.30
2024-01-19T10:18:28.951Z,6.29
2024-01-19T10:20:55.866Z,6.29
2024-01-19T10:23:23.877Z,5.98
2024-01-19T10:25:50.693Z,6.12
2024-01-19T10:28:29.062Z,6.31
2024-01-19T10:30:56.010Z,6.15
2024-01-19T10:33:22.862Z,6.48
2024-01-19T10:35:51.252Z,7.33
2024-01-19T10:38:18.003Z,7.00
2024-01-19T10:40:44.728Z,7.06
2024-01-19T10:43:11.858Z,7.24
2024-01-19T10:45:38.783Z,7.23
2024-01-19T10:48:05.967Z,7.53
2024-01-19T10:50:32.821Z,7.70
2024-01-19T10:53:02.011Z,7.72
2024-01-19T10:55:29.316Z,7.67
2024-01-19T10:57:57.976Z,7.76
2024-01-19T11:00:25.905Z,8.15
2024-01-19T11:02:54.193Z,7.96
2024-01-19T11:05:21.154Z,9.20
2024-01-19T11:07:50.542Z,8.77
2024-01-19T11:10:18.777Z,8.22
2024-01-19T11:12:47.034Z,8.43
2024-01-19T11:15:13.994Z,9.88
2024-01-19T11:17:40.942Z,8.96
2024-01-19T11:20:08.604Z,8.99
2024-01-19T11:22:35.685Z,9.18
2024-01-19T11:25:06.098Z,8.22
2024-01-19T11:27:36.726Z,8.39
2024-01-19T11:30:08.753Z,8.33
2024-01-19T11:32:35.570Z,7.62
2024-01-19T11:35:02.356Z,7.58
2024-01-19T11:37:44.454Z,7.22
2024-01-19T11:40:34.265Z,6.93
2024-01-19T11:43:02.366Z,6.64
2024-01-19T11:45:38.831Z,6.77
2024-01-19T11:48:06.240Z,6.12
2024-01-19T11:50:42.751Z,6.20
2024-01-19T11:53:09.490Z,6.02
2024-01-19T11:55:42.680Z,5.81
2024-01-19T11:58:30.680Z,6.02
2024-01-19T12:00:58.657Z,5.95
2024-01-19T12:03:25.562Z,5.60
2024-01-19T12:05:54.746Z,5.68
2024-01-19T12:08:21.624Z,5.93
2024-01-19T12:10:48.336Z,5.98
2024-01-19T12:13:15.186Z,5.50
2024-01-19T12:15:43.241Z,5.31
2024-01-19T12:18:09.991Z,6.03
2024-01-19T12:20:36.755Z,5.23
2024-01-19T12:23:03.982Z,5.22
2024-01-19T12:25:30.778Z,5.07
2024-01-19T12:28:04.265Z,4.78
2024-01-19T12:30:31.651Z,4.59
2024-01-19T12:33:13.917Z,4.56
2024-01-19T12:35:40.687Z,5.15
2024-01-19T12:38:07.733Z,5.22
2024-01-19T12:40:34.647Z,4.87
2024-01-19T12:43:02.543Z,4.61
2024-01-19T12:45:29.354Z,4.25
2024-01-19T12:47:56.189Z,4.22
2024-01-19T12:50:24.708Z,4.33
2024-01-19T12:52:51.710Z,4.29
2024-01-19T12:55:26.728Z,4.70
2024-01-19T12:57:53.535Z,4.22
2024-01-19T13:00:23.107Z,4.73
2024-01-19T13:02:52.904Z,4.05
2024-01-19T13:05:19.699Z,4.05
2024-01-19T13:07:47.815Z,4.17
2024-01-19T13:10:16.239Z,4.41
2024-01-19T13:12:42.923Z,4.20
2024-01-19T13:15:10.068Z,4.14
2024-01-19T13:17:36.829Z,4.32
2024-01-19T13:20:04.093Z,4.19
2024-01-19T13:22:30.898Z,4.01
2024-01-19T13:24:58.944Z,4.08
2024-01-19T13:27:25.659Z,4.19
2024-01-19T13:29:52.426Z,4.12
2024-01-19T13:32:19.284Z,4.25
2024-01-19T13:34:46.042Z,4.12
2024-01-19T13:37:12.744Z,4.17
2024-01-19T13:39:39.541Z,3.99
2024-01-19T13:42:07.688Z,4.47
2024-01-19T13:44:35.556Z,4.54
2024-01-19T13:47:02.272Z,4.73
2024-01-19T13:49:29.102Z,4.37
2024-01-19T13:51:55.872Z,4.72
2024-01-19T13:54:22.586Z,4.40
2024-01-19T13:56:49.271Z,4.48
2024-01-19T13:59:17.384Z,4.83
2024-01-19T14:01:44.170Z,4.51
2024-01-19T14:04:10.928Z,4.73
2024-01-19T14:06:37.647Z,4.72
2024-01-19T14:09:04.425Z,4.91
2024-01-19T14:11:31.124Z,4.97
2024-01-19T14:13:57.829Z,7.01
2024-01-19T14:16:25.926Z,6.87
2024-01-19T14:18:52.600Z,6.34
2024-01-19T14:21:19.390Z,5.37
2024-01-19T14:23:46.174Z,5.39
2024-01-19T14:26:13.180Z,5.20
2024-01-19T14:28:39.966Z,5.01
2024-01-19T14:31:06.860Z,4.60
2024-01-19T14:33:35.091Z,4.63
2024-01-19T14:36:01.874Z,5.09
2024-01-19T14:38:28.586Z,4.91
2024-01-19T14:40:55.462Z,4.67
2024-01-19T14:43:22.176Z,4.52
2024-01-19T14:45:48.909Z,4.55
2024-01-19T14:48:15.766Z,4.35
2024-01-19T14:50:44.194Z,4.78
2024-01-19T14:53:11.320Z,4.76
2024-01-19T14:55:38.138Z,4.84
2024-01-19T14:58:05.217Z,4.22
2024-01-19T15:00:31.930Z,4.44
2024-01-19T15:02:58.714Z,4.80
2024-01-19T15:05:25.517Z,4.56
2024-01-19T15:07:53.863Z,4.62
2024-01-19T15:10:20.629Z,4.99
2024-01-19T15:12:47.410Z,5.15
2024-01-19T15:15:14.300Z,5.66
2024-01-19T15:17:41.084Z,5.87
2024-01-19T15:20:08.941Z,4.59
2024-01-19T15:22:35.827Z,4.50
2024-01-19T15:25:04.753Z,4.56
2024-01-19T15:27:31.500Z,4.72
2024-01-19T15:29:58.409Z,4.62
2024-01-19T15:32:25.212Z,4.42
2024-01-19T15:34:51.994Z,4.57
2024-01-19T15:37:18.840Z,4.53
2024-01-19T15:39:45.567Z,4.62
2024-01-19T15:42:13.657Z,4.35
2024-01-19T15:44:42.244Z,4.40
2024-01-19T15:47:09.143Z,4.16
2024-01-19T15:49:37.318Z,4.50
2024-01-19T15:52:04.841Z,4.28
2024-01-19T15:54:31.636Z,3.95
2024-01-19T15:56:58.441Z,3.96
2024-01-19T15:59:26.573Z,4.45
2024-01-19T16:01:53.624Z,4.20
2024-01-19T16:04:20.370Z,4.33
2024-01-19T16:06:47.078Z,3.93
2024-01-19T16:09:13.861Z,4.19
2024-01-19T16:11:40.661Z,4.08
2024-01-19T16:14:07.425Z,4.15
2024-01-19T16:16:35.674Z,4.47
2024-01-19T16:19:02.640Z,3.90
2024-01-19T16:21:29.432Z,4.27
2024-01-19T16:23:56.366Z,4.28
2024-01-19T16:26:24.271Z,4.40
2024-01-19T16:28:51.461Z,4.20
2024-01-19T16:31:18.224Z,4.27
2024-01-19T16:33:46.440Z,4.30
2024-01-19T16:36:13.244Z,4.77
2024-01-19T16:38:40.053Z,5.90
2024-01-19T16:41:06.775Z,5.30
2024-01-19T16:43:33.526Z,4.77
2024-01-19T16:46:00.215Z,5.22
2024-01-19T16:48:27.173Z,5.30
2024-01-19T16:50:55.307Z,5.15
2024-01-19T16:53:22.444Z,5.80
2024-01-19T16:55:49.381Z,5.04
2024-01-19T16:58:16.167Z,5.43
2024-01-19T17:00:43.143Z,4.96
2024-01-19T17:03:10.035Z,4.82
2024-01-19T17:05:36.791Z,5.21
2024-01-19T17:08:05.636Z,5.56
2024-01-19T17:10:32.345Z,5.90
2024-01-19T17:12:59.053Z,5.36
2024-01-19T17:15:25.873Z,5.10
2024-01-19T17:17:52.894Z,4.49
2024-01-19T17:20:19.680Z,4.47
2024-01-19T17:22:46.489Z,4.63
2024-01-19T17:25:16.213Z,4.61
2024-01-19T17:27:42.952Z,4.90
2024-01-19T17:30:10.065Z,4.74
2024-01-19T17:32:36.881Z,4.77
2024-01-19T17:35:04.697Z,4.54
2024-01-19T17:37:31.557Z,4.86
2024-01-19T17:39:58.329Z,4.43
2024-01-19T17:42:26.642Z,4.33
2024-01-19T17:44:53.431Z,4.54
2024-01-19T17:47:20.269Z,4.17
2024-01-19T17:49:47.040Z,4.73
2024-01-19T17:52:13.791Z,4.78
2024-01-19T17:54:40.483Z,5.24
2024-01-19T17:57:07.251Z,5.56
2024-01-19T17:59:35.987Z,5.12
2024-01-19T18:02:02.793Z,4.66
2024-01-19T18:04:29.496Z,5.29
2024-01-19T18:06:56.470Z,5.27
2024-01-19T18:09:25.411Z,5.08
2024-01-19T18:11:53.483Z,5.19
2024-01-19T18:14:20.396Z,5.55
2024-01-19T18:16:48.770Z,5.29
2024-01-19T18:19:15.811Z,5.50
2024-01-19T18:21:42.654Z,5.07
2024-01-19T18:24:09.357Z,5.75
2024-01-19T18:26:37.734Z,5.40
2024-01-19T18:29:04.579Z,5.77
2024-01-19T18:31:31.512Z,5.58
2024-01-19T18:33:59.702Z,5.87
2024-01-19T18:36:27.706Z,5.70
2024-01-19T18:38:54.456Z,5.89
2024-01-19T18:41:21.245Z,5.84
2024-01-19T18:43:47.974Z,6.17
2024-01-19T18:46:14.828Z,6.13
2024-01-19T18:48:41.650Z,6.26
2024-01-19T18:51:09.884Z,5.99
2024-01-19T18:53:36.940Z,6.38
2024-01-19T18:56:05.280Z,6.48
2024-01-19T18:58:32.082Z,6.52
2024-01-19T19:00:59.070Z,6.20
2024-01-19T19:03:25.836Z,6.67
2024-01-19T19:05:52.890Z,6.87
2024-01-19T19:08:21.752Z,7.08
2024-01-19T19:10:49.302Z,7.34
2024-01-19T19:13:16.167Z,7.07
2024-01-19T19:15:43.298Z,6.75
2024-01-19T19:18:10.203Z,7.17
2024-01-19T19:20:37.847Z,7.77
2024-01-19T19:23:05.099Z,7.60
2024-01-19T19:25:33.222Z,7.06
2024-01-19T19:27:59.911Z,8.39
2024-01-19T19:30:26.626Z,7.81
2024-01-19T19:32:53.313Z,7.89
2024-01-19T19:35:20.121Z,7.60
2024-01-19T19:37:46.893Z,6.98
2024-01-19T19:40:13.633Z,7.60
2024-01-19T19:42:41.627Z,7.34
2024-01-19T19:45:09.093Z,7.37
2024-01-19T19:47:35.856Z,7.43
2024-01-19T19:50:02.715Z,7.33
2024-01-19T19:52:29.563Z,7.49
2024-01-19T19:54:56.266Z,7.53
2024-01-19T19:57:23.056Z,7.05
2024-01-19T19:59:51.111Z,6.87
2024-01-19T20:02:17.900Z,6.82
2024-01-19T20:04:44.658Z,7.33
2024-01-19T20:07:11.374Z,7.91
2024-01-19T20:09:38.194Z,7.73
2024-01-19T20:12:05.972Z,7.65
2024-01-19T20:14:34.582Z,7.85
2024-01-19T20:17:03.696Z,7.64
2024-01-19T20:19:32.783Z,7.89
2024-01-19T20:21:59.994Z,7.18
2024-01-19T20:24:26.743Z,7.11
2024-01-19T20:26:53.481Z,7.90
2024-01-19T20:29:20.391Z,7.41
2024-01-19T20:31:47.512Z,7.25
2024-01-19T20:34:15.685Z,7.14
2024-01-19T20:36:42.383Z,7.70
2024-01-19T20:39:09.123Z,7.64
2024-01-19T20:41:35.887Z,7.81
2024-01-19T20:44:02.732Z,8.12
2024-01-19T20:46:29.537Z,7.79
2024-01-19T20:48:56.287Z,8.02
2024-01-19T20:51:26.396Z,7.80
2024-01-19T20:53:54.439Z,7.97
2024-01-19T20:56:21.183Z,7.66
2024-01-19T20:58:48.031Z,7.86
2024-01-19T21:01:14.913Z,8.14
2024-01-19T21:03:41.709Z,8.29
2024-01-19T21:06:08.507Z,7.91
2024-01-19T21:08:36.698Z,7.63
2024-01-19T21:11:05.170Z,8.05
2024-01-19T21:13:32.427Z,8.41
2024-01-19T21:15:59.363Z,8.64
2024-01-19T21:18:26.695Z,8.52
2024-01-19T21:20:53.880Z,8.85
2024-01-19T21:23:22.888Z,8.48
2024-01-19T21:25:53.043Z,8.28
2024-01-19T21:28:20.102Z,8.21
2024-01-19T21:30:46.783Z,8.28
2024-01-19T21:33:13.692Z,9.15
2024-01-19T21:35:40.420Z,8.35
2024-01-19T21:38:07.208Z,8.65
2024-01-19T21:40:34.029Z,8.34
2024-01-19T21:43:02.226Z,8.60
2024-01-19T21:45:29.897Z,8.53
2024-01-19T21:47:56.868Z,8.80
2024-01-19T21:50:24.022Z,9.29
2024-01-19T21:52:53.142Z,9.37
2024-01-19T21:55:22.634Z,9.48
2024-01-19T21:57:50.370Z,9.68
2024-01-19T22:00:19.224Z,9.28
2024-01-19T22:02:46.342Z,9.71
2024-01-19T22:05:13.416Z,8.93
2024-01-19T22:07:40.768Z,9.02
2024-01-19T22:10:08.298Z,8.42
2024-01-19T22:12:35.249Z,9.46
2024-01-19T22:15:02.114Z,9.09
2024-01-19T22:17:30.304Z,9.17
2024-01-19T22:19:57.103Z,10.00
2024-01-19T22:22:23.973Z,8.97
2024-01-19T22:24:50.729Z,9.50
2024-01-19T22:27:17.457Z,9.55
2024-01-19T22:29:44.282Z,9.48
2024-01-19T22:32:11.808Z,9.20
2024-01-19T22:34:40.018Z,9.10
2024-01-19T22:37:06.974Z,9.61
2024-01-19T22:39:34.481Z,9.37
2024-01-19T22:42:01.437Z,9.80
2024-01-19T22:44:28.581Z,9.70
2024-01-19T22:46:55.582Z,9.98
2024-01-19T22:49:22.649Z,9.66
2024-01-19T22:51:51.244Z,9.35
2024-01-19T22:54:18.414Z,9.73
2024-01-19T22:56:45.147Z,9.68
2024-01-19T22:59:14.539Z,10.50
2024-01-19T23:01:41.341Z,9.88
2024-01-19T23:04:08.138Z,10.51
2024-01-19T23:06:34.986Z,10.30
2024-01-19T23:09:03.266Z,10.33
2024-01-19T23:11:30.037Z,10.67
2024-01-19T23:13:56.849Z,10.84
2024-01-19T23:16:23.640Z,10.84
2024-01-19T23:18:50.817Z,10.61
2024-01-19T23:21:17.783Z,10.35
2024-01-19T23:23:44.698Z,10.56
2024-01-19T23:26:13.413Z,10.37
2024-01-19T23:28:40.824Z,10.77
2024-01-19T23:31:08.080Z,10.22
2024-01-19T23:33:34.956Z,10.53
2024-01-19T23:36:01.965Z,10.58
2024-01-19T23:38:28.852Z,10.52
2024-01-19T23:40:55.786Z,10.61
2024-01-19T23:43:25.582Z,10.90
2024-01-19T23:45:52.320Z,10.17
2024-01-19T23:48:19.378Z,10.47
2024-01-19T23:50:46.483Z,10.30
2024-01-19T23:53:13.519Z,10.78
2024-01-19T23:55:40.319Z,10.67
2024-01-19T23:58:07.026Z,10.95
